createdAt,value
2018-05-13T00:00:37.854Z,0
2018-05-13T00:01:19.272Z,0
2018-05-13T00:01:59.794Z,0
2018-05-13T00:02:40.313Z,0
2018-05-13T00:03:20.850Z,0
2018-05-13T00:04:01.378Z,0
2018-05-13T00:04:41.909Z,0
2018-05-13T00:05:22.499Z,0
2018-05-13T00:06:02.955Z,0
2018-05-13T00:06:43.481Z,0
2018-05-13T00:07:24.009Z,0
2018-05-13T00:08:04.533Z,0
2018-05-13T00:08:46.363Z,0
2018-05-13T00:09:26.891Z,0
2018-05-13T00:10:07.420Z,0
2018-05-13T00:10:47.949Z,0
2018-05-13T00:11:29.234Z,0
2018-05-13T00:12:09.008Z,0
2018-05-13T00:12:49.513Z,0
2018-05-13T00:13:30.008Z,0
2018-05-13T00:14:10.544Z,0
2018-05-13T00:14:51.066Z,0
2018-05-13T00:15:31.595Z,0
2018-05-13T00:16:12.117Z,0
2018-05-13T00:16:52.644Z,0
2018-05-13T00:17:33.167Z,0
2018-05-13T00:18:13.698Z,0
2018-05-13T00:18:54.224Z,0
2018-05-13T00:19:34.755Z,0
2018-05-13T00:20:15.284Z,0
2018-05-13T00:20:56.363Z,0
2018-05-13T00:21:36.884Z,0
2018-05-13T00:22:17.420Z,0
2018-05-13T00:22:57.947Z,0
2018-05-13T00:23:38.484Z,0
2018-05-13T00:24:19.017Z,0
2018-05-13T00:24:59.546Z,0
2018-05-13T00:25:40.074Z,0
2018-05-13T00:26:20.609Z,0
2018-05-13T00:27:01.140Z,0
2018-05-13T00:27:41.668Z,0
2018-05-13T00:28:23.088Z,0
2018-05-13T00:29:04.482Z,0
2018-05-13T00:29:45.006Z,0
2018-05-13T00:30:25.544Z,0
2018-05-13T00:31:06.074Z,0
2018-05-13T00:31:46.600Z,0
2018-05-13T00:32:27.137Z,0
2018-05-13T00:33:07.636Z,0
2018-05-13T00:33:48.735Z,0
2018-05-13T00:34:28.757Z,0
2018-05-13T00:35:09.224Z,0
2018-05-13T00:35:49.751Z,0
2018-05-13T00:36:30.279Z,0
2018-05-13T00:37:10.818Z,0
2018-05-13T00:37:52.236Z,0
2018-05-13T00:38:31.868Z,0
2018-05-13T00:39:12.393Z,0
2018-05-13T00:39:52.926Z,0
2018-05-13T00:40:33.438Z,0
2018-05-13T00:41:13.969Z,0
2018-05-13T00:41:54.489Z,0
2018-05-13T00:42:35.737Z,0
2018-05-13T00:43:15.533Z,0
2018-05-13T00:43:56.067Z,0
2018-05-13T00:44:36.596Z,0
2018-05-13T00:45:17.162Z,0
2018-05-13T00:45:57.649Z,0
2018-05-13T00:46:38.169Z,0
2018-05-13T00:47:18.700Z,0
2018-05-13T00:47:59.234Z,0
2018-05-13T00:48:39.760Z,0
2018-05-13T00:49:20.288Z,0
2018-05-13T00:50:00.809Z,0
2018-05-13T00:50:41.434Z,0
2018-05-13T00:51:21.845Z,0
2018-05-13T00:52:02.376Z,0
2018-05-13T00:52:42.907Z,0
2018-05-13T00:53:23.437Z,0
2018-05-13T00:54:03.963Z,0
2018-05-13T00:54:44.509Z,0
2018-05-13T00:55:25.741Z,0
2018-05-13T00:56:05.547Z,0
2018-05-13T00:56:46.079Z,0
2018-05-13T00:57:26.595Z,0
2018-05-13T00:58:08.238Z,0
2018-05-13T00:58:48.211Z,0
2018-05-13T00:59:28.744Z,0
2018-05-13T01:00:09.279Z,0
2018-05-13T01:00:49.808Z,0
2018-05-13T01:01:30.319Z,0
2018-05-13T01:02:11.403Z,0
2018-05-13T01:02:52.909Z,0
2018-05-13T01:03:32.462Z,0
2018-05-13T01:04:12.994Z,0
2018-05-13T01:04:54.745Z,0
2018-05-13T01:05:35.305Z,0
2018-05-13T01:06:16.740Z,0
2018-05-13T01:06:57.745Z,0
2018-05-13T01:07:37.628Z,0
2018-05-13T01:08:18.156Z,0
2018-05-13T01:08:58.686Z,0
2018-05-13T01:09:39.746Z,0
2018-05-13T01:10:20.577Z,0
2018-05-13T01:11:01.746Z,0
2018-05-13T01:11:41.671Z,0
2018-05-13T01:12:23.087Z,0
2018-05-13T01:13:03.620Z,0
2018-05-13T01:13:44.126Z,0
2018-05-13T01:14:24.655Z,0
2018-05-13T01:15:05.391Z,0
2018-05-13T01:15:45.927Z,0
2018-05-13T01:16:26.456Z,0
2018-05-13T01:17:06.975Z,0
2018-05-13T01:17:48.244Z,0
2018-05-13T01:18:28.016Z,0
2018-05-13T01:19:08.538Z,0
2018-05-13T01:19:49.065Z,0
2018-05-13T01:20:29.595Z,0
2018-05-13T01:21:10.746Z,0
2018-05-13T01:21:50.649Z,0
2018-05-13T01:22:31.173Z,0
2018-05-13T01:23:11.703Z,0
2018-05-13T01:23:52.749Z,0
2018-05-13T01:24:32.744Z,0
2018-05-13T01:25:13.274Z,0
2018-05-13T01:25:53.807Z,0
2018-05-13T01:26:34.333Z,0
2018-05-13T01:27:14.861Z,0
2018-05-13T01:27:55.392Z,0
2018-05-13T01:28:37.748Z,0
2018-05-13T01:29:17.335Z,0
2018-05-13T01:29:57.865Z,0
2018-05-13T01:30:38.393Z,0
2018-05-13T01:31:18.926Z,0
2018-05-13T01:31:59.445Z,0
2018-05-13T01:32:39.969Z,0
2018-05-13T01:33:20.496Z,0
2018-05-13T01:34:01.027Z,0
2018-05-13T01:34:41.556Z,0
2018-05-13T01:35:22.089Z,0
2018-05-13T01:36:03.248Z,0
2018-05-13T01:36:43.140Z,0
2018-05-13T01:37:23.668Z,0
2018-05-13T01:38:04.186Z,0
2018-05-13T01:38:44.714Z,0
2018-05-13T01:39:25.230Z,0
2018-05-13T01:40:05.745Z,0
2018-05-13T01:40:46.272Z,0
2018-05-13T01:41:26.792Z,0
2018-05-13T01:42:07.319Z,0
2018-05-13T01:42:47.844Z,0
2018-05-13T01:43:28.368Z,0
2018-05-13T01:44:08.889Z,0
2018-05-13T01:44:49.427Z,0
2018-05-13T01:45:30.750Z,0
2018-05-13T01:46:10.469Z,0
2018-05-13T01:46:50.993Z,0
2018-05-13T01:47:31.509Z,0
2018-05-13T01:48:12.037Z,0
2018-05-13T01:48:52.578Z,0
2018-05-13T01:49:33.077Z,0
2018-05-13T01:50:13.606Z,0
2018-05-13T01:50:54.750Z,0
2018-05-13T01:51:34.660Z,0
2018-05-13T01:52:15.819Z,0
2018-05-13T01:52:56.812Z,0
2018-05-13T01:53:37.345Z,0
2018-05-13T01:54:17.884Z,0
2018-05-13T01:54:58.414Z,0
2018-05-13T01:55:38.950Z,0
2018-05-13T01:56:20.257Z,0
2018-05-13T01:57:01.751Z,0
2018-05-13T01:57:41.337Z,0
2018-05-13T01:58:21.866Z,0
2018-05-13T01:59:02.400Z,0
2018-05-13T01:59:42.925Z,0
2018-05-13T02:00:23.453Z,0
2018-05-13T02:01:03.969Z,0
2018-05-13T02:01:44.500Z,0
2018-05-13T02:02:25.032Z,0
2018-05-13T02:03:05.544Z,0
2018-05-13T02:03:46.072Z,0
2018-05-13T02:04:26.612Z,0
2018-05-13T02:05:07.139Z,0
2018-05-13T02:05:47.671Z,0
2018-05-13T02:06:28.207Z,0
2018-05-13T02:07:08.734Z,0
2018-05-13T02:07:49.262Z,0
2018-05-13T02:08:29.787Z,0
2018-05-13T02:09:10.310Z,0
2018-05-13T02:09:50.841Z,0
2018-05-13T02:10:31.371Z,0
2018-05-13T02:11:11.901Z,0
2018-05-13T02:11:52.434Z,0
2018-05-13T02:12:32.957Z,0
2018-05-13T02:13:13.488Z,0
2018-05-13T02:13:54.029Z,0
2018-05-13T02:14:35.259Z,0
2018-05-13T02:15:15.506Z,0
2018-05-13T02:15:56.032Z,0
2018-05-13T02:16:36.571Z,0
2018-05-13T02:17:17.100Z,0
2018-05-13T02:17:57.631Z,0
2018-05-13T02:18:38.155Z,0
2018-05-13T02:19:20.759Z,0
2018-05-13T02:20:01.293Z,0
2018-05-13T02:20:41.820Z,0
2018-05-13T02:21:22.353Z,0
2018-05-13T02:22:03.417Z,0
2018-05-13T02:22:43.938Z,0
2018-05-13T02:23:24.961Z,0
2018-05-13T02:24:06.255Z,0
2018-05-13T02:24:46.028Z,0
2018-05-13T02:25:26.560Z,0
2018-05-13T02:26:07.064Z,0
2018-05-13T02:26:47.588Z,0
2018-05-13T02:27:28.098Z,0
2018-05-13T02:28:08.627Z,0
2018-05-13T02:28:49.159Z,0
2018-05-13T02:29:29.687Z,0
2018-05-13T02:30:10.802Z,0
2018-05-13T02:30:51.537Z,0
2018-05-13T02:31:32.071Z,0
2018-05-13T02:32:12.596Z,0
2018-05-13T02:32:53.125Z,0
2018-05-13T02:33:33.652Z,0
2018-05-13T02:34:14.767Z,0
2018-05-13T02:34:54.686Z,0
2018-05-13T02:35:35.215Z,0
2018-05-13T02:36:15.739Z,0
2018-05-13T02:36:56.265Z,0
2018-05-13T02:37:36.795Z,0
2018-05-13T02:38:17.325Z,0
2018-05-13T02:38:57.862Z,0
2018-05-13T02:39:38.382Z,0
2018-05-13T02:40:18.910Z,0
2018-05-13T02:40:59.437Z,0
2018-05-13T02:41:39.939Z,0
2018-05-13T02:42:20.464Z,0
2018-05-13T02:43:00.989Z,0
2018-05-13T02:43:41.520Z,0
2018-05-13T02:44:22.044Z,0
2018-05-13T02:45:02.575Z,0
2018-05-13T02:45:43.652Z,0
2018-05-13T02:46:24.761Z,0
2018-05-13T02:47:06.216Z,0
2018-05-13T02:47:46.743Z,0
2018-05-13T02:48:27.284Z,0
2018-05-13T02:49:08.267Z,0
2018-05-13T02:49:48.311Z,0
2018-05-13T02:50:28.829Z,0
2018-05-13T02:51:09.359Z,0
2018-05-13T02:51:49.903Z,0
2018-05-13T02:52:30.424Z,0
2018-05-13T02:53:10.946Z,0
2018-05-13T02:53:52.227Z,0
2018-05-13T02:54:32.760Z,0
2018-05-13T02:55:13.289Z,0
2018-05-13T02:55:54.764Z,0
2018-05-13T02:56:37.016Z,0
2018-05-13T02:57:17.550Z,0
2018-05-13T02:57:58.077Z,0
2018-05-13T02:58:38.608Z,0
2018-05-13T02:59:19.140Z,0
2018-05-13T03:00:00.649Z,0
2018-05-13T03:00:41.158Z,0
2018-05-13T03:01:21.679Z,0
2018-05-13T03:02:02.200Z,0
2018-05-13T03:02:42.731Z,0
2018-05-13T03:03:24.262Z,0
2018-05-13T03:04:03.781Z,0
2018-05-13T03:04:44.308Z,0
2018-05-13T03:05:24.844Z,0
2018-05-13T03:06:05.368Z,0
2018-05-13T03:06:45.896Z,0
2018-05-13T03:07:26.537Z,0
2018-05-13T03:08:07.063Z,0
2018-05-13T03:08:47.819Z,0
2018-05-13T03:09:28.340Z,0
2018-05-13T03:10:08.857Z,0
2018-05-13T03:10:49.374Z,0
2018-05-13T03:11:29.906Z,0
2018-05-13T03:12:12.265Z,0
2018-05-13T03:12:51.856Z,0
2018-05-13T03:13:32.366Z,0
2018-05-13T03:14:13.657Z,0
2018-05-13T03:14:54.180Z,0
2018-05-13T03:15:34.712Z,0
2018-05-13T03:16:15.766Z,0
2018-05-13T03:16:55.759Z,0
2018-05-13T03:17:36.293Z,0
2018-05-13T03:18:16.820Z,0
2018-05-13T03:18:57.436Z,0
2018-05-13T03:19:37.881Z,0
2018-05-13T03:20:18.407Z,0
2018-05-13T03:20:58.936Z,0
2018-05-13T03:21:39.464Z,0
2018-05-13T03:22:19.980Z,0
2018-05-13T03:23:00.645Z,0
2018-05-13T03:23:41.175Z,0
2018-05-13T03:24:22.623Z,0
2018-05-13T03:25:03.243Z,0
2018-05-13T03:25:43.774Z,0
2018-05-13T03:26:24.288Z,0
2018-05-13T03:27:04.828Z,0
2018-05-13T03:27:45.335Z,0
2018-05-13T03:28:25.863Z,0
2018-05-13T03:29:06.396Z,0
2018-05-13T03:29:46.924Z,0
2018-05-13T03:30:27.456Z,0
2018-05-13T03:31:07.980Z,0
2018-05-13T03:31:48.502Z,0
2018-05-13T03:32:29.031Z,5
2018-05-13T03:33:10.133Z,5
2018-05-13T03:33:50.644Z,5
2018-05-13T03:34:31.177Z,5
2018-05-13T03:35:11.695Z,5
2018-05-13T03:35:52.220Z,5
2018-05-13T03:36:32.764Z,5
2018-05-13T03:37:13.283Z,5
2018-05-13T03:37:53.816Z,5
2018-05-13T03:38:34.347Z,5
2018-05-13T03:39:14.875Z,5
2018-05-13T03:39:56.272Z,5
2018-05-13T03:40:36.823Z,10
2018-05-13T03:41:17.346Z,10
2018-05-13T03:41:57.878Z,10
2018-05-13T03:42:38.397Z,10
2018-05-13T03:43:19.730Z,10
2018-05-13T03:44:00.261Z,10
2018-05-13T03:44:40.793Z,10
2018-05-13T03:45:21.306Z,15
2018-05-13T03:46:02.771Z,15
2018-05-13T03:46:42.355Z,15
2018-05-13T03:47:22.886Z,15
2018-05-13T03:48:03.400Z,15
2018-05-13T03:48:43.922Z,15
2018-05-13T03:49:24.450Z,15
2018-05-13T03:50:04.980Z,20
2018-05-13T03:50:45.512Z,20
2018-05-13T03:51:26.041Z,20
2018-05-13T03:52:06.568Z,20
2018-05-13T03:52:47.099Z,20
2018-05-13T03:53:27.629Z,20
2018-05-13T03:54:08.145Z,25
2018-05-13T03:54:48.674Z,25
2018-05-13T03:55:29.206Z,25
2018-05-13T03:56:10.240Z,25
2018-05-13T03:56:50.750Z,25
2018-05-13T03:57:31.278Z,25
2018-05-13T03:58:12.774Z,30
2018-05-13T03:58:52.324Z,30
2018-05-13T03:59:32.860Z,30
2018-05-13T04:00:13.387Z,30
2018-05-13T04:00:53.912Z,30
2018-05-13T04:01:34.441Z,35
2018-05-13T04:02:14.968Z,35
2018-05-13T04:02:56.273Z,35
2018-05-13T04:03:36.027Z,35
2018-05-13T04:04:16.557Z,35
2018-05-13T04:04:57.776Z,35
2018-05-13T04:05:37.589Z,40
2018-05-13T04:06:18.110Z,40
2018-05-13T04:06:58.626Z,40
2018-05-13T04:07:39.150Z,40
2018-05-13T04:08:19.681Z,45
2018-05-13T04:09:00.210Z,45
2018-05-13T04:09:40.724Z,45
2018-05-13T04:10:21.256Z,45
2018-05-13T04:11:01.782Z,45
2018-05-13T04:11:42.300Z,50
2018-05-13T04:12:22.831Z,50
2018-05-13T04:13:03.357Z,50
2018-05-13T04:13:43.881Z,50
2018-05-13T04:14:24.406Z,55
2018-05-13T04:15:04.951Z,55
2018-05-13T04:15:45.481Z,55
2018-05-13T04:16:26.001Z,55
2018-05-13T04:17:06.524Z,60
2018-05-13T04:17:47.736Z,60
2018-05-13T04:18:28.266Z,60
2018-05-13T04:19:09.296Z,60
2018-05-13T04:19:49.836Z,60
2018-05-13T04:20:31.150Z,65
2018-05-13T04:21:11.681Z,65
2018-05-13T04:21:52.776Z,65
2018-05-13T04:22:32.736Z,65
2018-05-13T04:23:13.994Z,70
2018-05-13T04:23:55.279Z,70
2018-05-13T04:24:35.880Z,70
2018-05-13T04:25:16.425Z,70
2018-05-13T04:25:56.925Z,75
2018-05-13T04:26:37.448Z,75
2018-05-13T04:27:17.973Z,75
2018-05-13T04:27:59.345Z,75
2018-05-13T04:28:39.851Z,75
2018-05-13T04:29:20.395Z,80
2018-05-13T04:30:00.913Z,80
2018-05-13T04:30:41.434Z,80
2018-05-13T04:31:21.961Z,80
2018-05-13T04:32:02.541Z,85
2018-05-13T04:32:43.050Z,85
2018-05-13T04:33:23.566Z,85
2018-05-13T04:34:04.094Z,85
2018-05-13T04:34:44.660Z,90
2018-05-13T04:35:25.194Z,90
2018-05-13T04:36:05.700Z,90
2018-05-13T04:36:46.218Z,90
2018-05-13T04:37:27.279Z,95
2018-05-13T04:38:08.776Z,95
2018-05-13T04:38:48.439Z,95
2018-05-13T04:39:28.966Z,95
2018-05-13T04:40:09.491Z,100
2018-05-13T04:40:50.024Z,100
2018-05-13T04:41:32.225Z,100
2018-05-13T04:42:12.764Z,100
2018-05-13T04:42:54.280Z,100
2018-05-13T04:43:33.837Z,105
2018-05-13T04:44:14.362Z,105
2018-05-13T04:44:54.896Z,105
2018-05-13T04:45:35.429Z,105
2018-05-13T04:46:16.197Z,110
2018-05-13T04:46:57.278Z,110
2018-05-13T04:47:37.255Z,110
2018-05-13T04:48:17.824Z,110
2018-05-13T04:48:58.360Z,110
2018-05-13T04:49:38.878Z,115
2018-05-13T04:50:19.402Z,115
2018-05-13T04:50:59.929Z,115
2018-05-13T04:51:40.449Z,115
2018-05-13T04:52:21.905Z,115
2018-05-13T04:53:02.425Z,120
2018-05-13T04:53:42.977Z,120
2018-05-13T04:54:24.407Z,120
2018-05-13T04:55:05.445Z,120
2018-05-13T04:55:45.968Z,120
2018-05-13T04:56:26.497Z,125
2018-05-13T04:57:07.031Z,125
2018-05-13T04:57:47.552Z,125
2018-05-13T04:58:28.085Z,125
2018-05-13T04:59:08.607Z,125
2018-05-13T04:59:49.783Z,130
2018-05-13T05:00:29.645Z,130
2018-05-13T05:01:10.172Z,130
2018-05-13T05:01:50.703Z,130
2018-05-13T05:02:31.216Z,130
2018-05-13T05:03:11.738Z,130
2018-05-13T05:03:52.264Z,130
2018-05-13T05:04:33.291Z,135
2018-05-13T05:05:13.310Z,135
2018-05-13T05:05:53.925Z,135
2018-05-13T05:06:34.430Z,135
2018-05-13T05:07:14.942Z,135
2018-05-13T05:07:55.447Z,140
2018-05-13T05:08:36.784Z,140
2018-05-13T05:09:17.839Z,140
2018-05-13T05:09:59.288Z,140
2018-05-13T05:10:39.105Z,140
2018-05-13T05:11:19.630Z,145
2018-05-13T05:12:00.161Z,145
2018-05-13T05:12:40.687Z,145
2018-05-13T05:13:21.500Z,145
2018-05-13T05:14:01.944Z,145
2018-05-13T05:14:42.411Z,150
2018-05-13T05:15:22.932Z,150
2018-05-13T05:16:03.547Z,150
2018-05-13T05:16:44.294Z,150
2018-05-13T05:17:25.894Z,150
2018-05-13T05:18:07.328Z,155
2018-05-13T05:18:48.157Z,155
2018-05-13T05:19:28.766Z,155
2018-05-13T05:20:09.419Z,155
2018-05-13T05:20:50.091Z,160
2018-05-13T05:21:30.834Z,160
2018-05-13T05:22:11.392Z,160
2018-05-13T05:22:51.889Z,160
2018-05-13T05:23:32.698Z,165
2018-05-13T05:24:13.448Z,165
2018-05-13T05:24:54.859Z,165
2018-05-13T05:25:35.351Z,165
2018-05-13T05:26:15.864Z,170
2018-05-13T05:26:56.388Z,185
2018-05-13T05:27:36.891Z,185
2018-05-13T05:28:17.412Z,185
2018-05-13T05:28:57.935Z,185
2018-05-13T05:29:38.463Z,185
2018-05-13T05:30:19.949Z,190
2018-05-13T05:31:00.465Z,190
2018-05-13T05:31:41.525Z,190
2018-05-13T05:32:22.790Z,195
2018-05-13T05:33:02.562Z,200
2018-05-13T05:33:43.086Z,205
2018-05-13T05:34:25.289Z,210
2018-05-13T05:35:04.817Z,220
2018-05-13T05:35:45.354Z,225
2018-05-13T05:36:25.849Z,230
2018-05-13T05:37:07.017Z,235
2018-05-13T05:37:48.185Z,240
2018-05-13T05:38:28.704Z,230
2018-05-13T05:39:09.797Z,235
2018-05-13T05:39:49.747Z,240
2018-05-13T05:40:30.262Z,245
2018-05-13T05:41:10.778Z,245
2018-05-13T05:41:51.292Z,250
2018-05-13T05:42:31.818Z,255
2018-05-13T05:43:12.343Z,260
2018-05-13T05:43:52.864Z,270
2018-05-13T05:44:33.399Z,285
2018-05-13T05:45:14.790Z,295
2018-05-13T05:45:55.360Z,310
2018-05-13T05:46:35.888Z,330
2018-05-13T05:47:16.418Z,350
2018-05-13T05:47:56.976Z,370
2018-05-13T05:48:38.293Z,390
2018-05-13T05:49:18.016Z,405
2018-05-13T05:49:58.542Z,415
2018-05-13T05:50:39.056Z,415
2018-05-13T05:51:19.576Z,420
2018-05-13T05:52:00.103Z,420
2018-05-13T05:52:40.625Z,425
2018-05-13T05:53:21.161Z,420
2018-05-13T05:54:01.690Z,425
2018-05-13T05:54:42.793Z,425
2018-05-13T05:55:22.724Z,425
2018-05-13T05:56:03.306Z,430
2018-05-13T05:56:43.792Z,430
2018-05-13T05:57:24.315Z,435
2018-05-13T05:58:04.847Z,435
2018-05-13T05:58:45.376Z,435
2018-05-13T05:59:25.903Z,435
2018-05-13T06:00:06.508Z,440
2018-05-13T06:00:46.970Z,440
2018-05-13T06:01:28.294Z,440
2018-05-13T06:02:08.011Z,445
2018-05-13T06:02:49.306Z,445
2018-05-13T06:03:29.060Z,450
2018-05-13T06:04:10.514Z,450
2018-05-13T06:04:51.042Z,450
2018-05-13T06:05:31.586Z,460
2018-05-13T06:06:12.114Z,455
2018-05-13T06:06:52.644Z,455
2018-05-13T06:07:33.168Z,460
2018-05-13T06:08:13.691Z,465
2018-05-13T06:08:54.460Z,470
2018-05-13T06:09:34.988Z,470
2018-05-13T06:10:16.298Z,475
2018-05-13T06:10:56.026Z,475
2018-05-13T06:11:36.551Z,475
2018-05-13T06:12:17.843Z,475
2018-05-13T06:12:57.604Z,480
2018-05-13T06:13:38.135Z,485
2018-05-13T06:14:19.304Z,490
2018-05-13T06:14:59.514Z,490
2018-05-13T06:15:40.052Z,490
2018-05-13T06:16:20.714Z,495
2018-05-13T06:17:01.160Z,500
2018-05-13T06:17:41.671Z,505
2018-05-13T06:18:22.810Z,510
2018-05-13T06:19:03.140Z,515
2018-05-13T06:19:43.767Z,520
2018-05-13T06:20:24.297Z,520
2018-05-13T06:21:04.828Z,520
2018-05-13T06:21:45.367Z,525
2018-05-13T06:22:26.808Z,525
2018-05-13T06:23:06.432Z,530
2018-05-13T06:23:47.804Z,535
2018-05-13T06:24:27.482Z,535
2018-05-13T06:25:08.026Z,540
2018-05-13T06:25:48.527Z,540
2018-05-13T06:26:29.141Z,545
2018-05-13T06:27:09.665Z,550
2018-05-13T06:27:50.190Z,555
2018-05-13T06:28:30.725Z,555
2018-05-13T06:29:11.774Z,555
2018-05-13T06:29:53.400Z,560
2018-05-13T06:30:33.944Z,570
2018-05-13T06:31:14.500Z,575
2018-05-13T06:31:55.067Z,580
2018-05-13T06:32:35.574Z,580
2018-05-13T06:33:16.083Z,585
2018-05-13T06:33:56.591Z,590
2018-05-13T06:34:37.806Z,595
2018-05-13T06:35:17.955Z,600
2018-05-13T06:35:59.310Z,605
2018-05-13T06:36:39.478Z,610
2018-05-13T06:37:20.002Z,615
2018-05-13T06:38:01.323Z,620
2018-05-13T06:38:41.430Z,635
2018-05-13T06:39:22.080Z,635
2018-05-13T06:40:03.013Z,635
2018-05-13T06:40:43.529Z,630
2018-05-13T06:41:24.047Z,640
2018-05-13T06:42:05.311Z,665
2018-05-13T06:42:45.329Z,695
2018-05-13T06:43:25.841Z,705
2018-05-13T06:44:07.311Z,700
2018-05-13T06:44:47.200Z,700
2018-05-13T06:45:28.312Z,700
2018-05-13T06:46:08.887Z,730
2018-05-13T06:46:49.540Z,750
2018-05-13T06:47:30.074Z,780
2018-05-13T06:48:11.675Z,805
2018-05-13T06:48:52.281Z,810
2018-05-13T06:49:33.547Z,815
2018-05-13T06:50:14.085Z,815
2018-05-13T06:50:54.758Z,815
2018-05-13T06:51:35.488Z,800
2018-05-13T06:52:15.981Z,805
2018-05-13T06:52:56.486Z,795
2018-05-13T06:53:37.074Z,810
2018-05-13T06:54:17.553Z,845
2018-05-13T06:54:58.075Z,865
2018-05-13T06:55:38.597Z,755
2018-05-13T06:56:19.446Z,810
2018-05-13T06:57:00.818Z,900
2018-05-13T06:57:40.616Z,1030
2018-05-13T06:58:21.149Z,1120
2018-05-13T06:59:02.594Z,1155
2018-05-13T06:59:43.840Z,1130
2018-05-13T07:00:23.674Z,1110
2018-05-13T07:01:04.825Z,1160
2018-05-13T07:01:45.403Z,1120
2018-05-13T07:02:25.967Z,1040
2018-05-13T07:03:06.484Z,1160
2018-05-13T07:03:47.022Z,1285
2018-05-13T07:04:27.530Z,1340
2018-05-13T07:05:08.416Z,1395
2018-05-13T07:05:48.955Z,1495
2018-05-13T07:06:30.323Z,1615
2018-05-13T07:07:11.635Z,1690
2018-05-13T07:07:53.323Z,1750
2018-05-13T07:08:33.850Z,1795
